Kaweah, California
Current Conditions -  °F | °C
As of 12:35 PM on Saturday 25 Oct 2014 (Local Time) from KVIS Reporting Station
Clear Clear  
Wind Chill: 75°   Ceiling: Unl
Heat Index: 75°   Visibility: 10mi
Dew Point: 50°   Wind: 5mph
Humidity: 41%   Direction: 160°SSE
Pressure: 30.07"   Gusts: NA
Location:  36.47°N, 118.92°W
Report Text: KVIS 251935Z 16004KT 10SM CLR 24/10 A3007 RMK AO1
Loading
Personal Weather Stations






























Interactive Weather Map
Tropical Storm Tracking
New forecast layout! Learn more

10-Day Weather Forecast

Advertisements
Track Severe Weather on mobile